VTVED VOBL-VOMM
Flight info
| Callsign | VTVED |
|---|---|
| Flight time | N/A |
| Altitude | 19000 |
| Route | BIA W116 MMV |
| Aircraft | BE60/L-SDFGRY/C |
Departure
| Time | 2026-04-28 02:37 |
|---|---|
| Airport | Kempegowda International Airport Bengaluru (VOBL) |
Arrival
| Time | N/A |
|---|---|
| Airport | Chennai International Airport (VOMM) |
| Time | Latitude | Longitude | Altitude | Speed | Heading |
|---|---|---|---|---|---|
| 2026-04-28 01:56 | 13.20374 | 77.69454 | 3005 ft | 0 kts | 0° |
| 2026-04-28 02:20 | 13.20373 | 77.69454 | 3005 ft | 0 kts | 0° |
| 2026-04-28 02:33 | 13.20378 | 77.69457 | 3005 ft | 4 kts | 56° |
| 2026-04-28 02:33 | 13.20330 | 77.69458 | 3005 ft | 11 kts | 239° |
| 2026-04-28 02:34 | 13.20331 | 77.69375 | 3005 ft | 13 kts | 314° |
| 2026-04-28 02:34 | 13.20414 | 77.69333 | 3005 ft | 16 kts | 0° |
| 2026-04-28 02:34 | 13.20532 | 77.69320 | 3005 ft | 18 kts | 311° |
| 2026-04-28 02:34 | 13.20573 | 77.69206 | 3005 ft | 18 kts | 342° |
| 2026-04-28 02:35 | 13.20623 | 77.69205 | 3005 ft | 0 kts | 2° |
| 2026-04-28 02:36 | 13.20637 | 77.69205 | 3005 ft | 8 kts | 2° |
| 2026-04-28 02:36 | 13.20708 | 77.69248 | 3006 ft | 16 kts | 71° |
| 2026-04-28 02:36 | 13.20712 | 77.69562 | 3005 ft | 79 kts | 91° |
| 2026-04-28 02:36 | 13.20712 | 77.70293 | 3063 ft | 118 kts | 91° |
| 2026-04-28 02:37 | 13.20743 | 77.71205 | 3380 ft | 130 kts | 90° |
| 2026-04-28 02:37 | 13.20815 | 77.72150 | 3780 ft | 143 kts | 84° |
| 2026-04-28 02:37 | 13.20986 | 77.73213 | 4053 ft | 154 kts | 71° |
| 2026-04-28 02:37 | 13.21584 | 77.74181 | 4214 ft | 167 kts | 39° |
| 2026-04-28 02:38 | 13.22680 | 77.74460 | 4413 ft | 164 kts | 351° |
| 2026-04-28 02:38 | 13.23773 | 77.74300 | 4800 ft | 158 kts | 346° |
| 2026-04-28 02:38 | 13.24623 | 77.73679 | 5071 ft | 153 kts | 302° |
| 2026-04-28 02:38 | 13.24918 | 77.72649 | 5010 ft | 159 kts | 273° |
| 2026-04-28 02:39 | 13.24963 | 77.71485 | 4922 ft | 158 kts | 270° |
| 2026-04-28 02:39 | 13.24950 | 77.70421 | 4998 ft | 137 kts | 265° |
| 2026-04-28 02:39 | 13.24878 | 77.69560 | 4991 ft | 116 kts | 265° |
| 2026-04-28 02:39 | 13.24881 | 77.68693 | 4579 ft | 120 kts | 271° |
| 2026-04-28 02:40 | 13.24942 | 77.67856 | 4253 ft | 118 kts | 272° |
| 2026-04-28 02:40 | 13.24831 | 77.67039 | 3849 ft | 119 kts | 232° |
| 2026-04-28 02:40 | 13.24234 | 77.66560 | 3775 ft | 106 kts | 216° |
| 2026-04-28 02:40 | 13.23639 | 77.66151 | 3674 ft | 99 kts | 214° |
| 2026-04-28 02:41 | 13.23069 | 77.65789 | 3626 ft | 94 kts | 213° |
| 2026-04-28 02:41 | 13.22529 | 77.65495 | 3624 ft | 86 kts | 195° |
| 2026-04-28 02:41 | 13.21944 | 77.65701 | 3467 ft | 105 kts | 138° |
| 2026-04-28 02:41 | 13.21640 | 77.66399 | 3257 ft | 105 kts | 112° |
| 2026-04-28 02:42 | 13.21357 | 77.67076 | 3219 ft | 104 kts | 127° |
| 2026-04-28 02:42 | 13.20936 | 77.67659 | 3244 ft | 98 kts | 119° |
| 2026-04-28 02:42 | 13.20717 | 77.68337 | 3116 ft | 100 kts | 91° |
| 2026-04-28 02:42 | 13.20714 | 77.69057 | 3022 ft | 99 kts | 92° |
| 2026-04-28 02:43 | 13.20708 | 77.69687 | 3006 ft | 75 kts | 90° |
| 2026-04-28 02:43 | 13.20666 | 77.70209 | 3006 ft | 65 kts | 100° |
| 2026-04-28 02:43 | 13.20554 | 77.70594 | 3005 ft | 49 kts | 115° |
| 2026-04-28 02:43 | 13.20472 | 77.70739 | 3005 ft | 43 kts | 125° |